sensor_id;sensor_type;location;lat;lon;timestamp;P1;durP1;ratioP1;P2;durP2;ratioP2
57899;SDS011;60605;53.716;19.940;2023-07-31T00:01:11;7.60;;;7.00;;
57899;SDS011;60605;53.716;19.940;2023-07-31T00:06:15;8.30;;;7.60;;
57899;SDS011;60605;53.716;19.940;2023-07-31T00:11:18;8.20;;;7.40;;
57899;SDS011;60605;53.716;19.940;2023-07-31T00:16:21;8.30;;;7.60;;
57899;SDS011;60605;53.716;19.940;2023-07-31T00:21:25;8.40;;;7.60;;
57899;SDS011;60605;53.716;19.940;2023-07-31T00:26:28;8.00;;;7.10;;
57899;SDS011;60605;53.716;19.940;2023-07-31T00:31:31;8.30;;;7.50;;
57899;SDS011;60605;53.716;19.940;2023-07-31T00:36:35;8.10;;;7.00;;
57899;SDS011;60605;53.716;19.940;2023-07-31T00:41:39;8.10;;;7.10;;
57899;SDS011;60605;53.716;19.940;2023-07-31T00:46:42;10.30;;;7.10;;
57899;SDS011;60605;53.716;19.940;2023-07-31T00:51:46;9.60;;;7.30;;
57899;SDS011;60605;53.716;19.940;2023-07-31T00:56:49;8.40;;;7.40;;
57899;SDS011;60605;53.716;19.940;2023-07-31T01:01:55;9.90;;;7.10;;
57899;SDS011;60605;53.716;19.940;2023-07-31T01:12:29;10.90;;;7.80;;
57899;SDS011;60605;53.716;19.940;2023-07-31T01:17:34;9.70;;;8.30;;
57899;SDS011;60605;53.716;19.940;2023-07-31T01:22:49;10.20;;;8.50;;
57899;SDS011;60605;53.716;19.940;2023-07-31T01:28:19;10.30;;;9.20;;
57899;SDS011;60605;53.716;19.940;2023-07-31T01:33:27;10.00;;;8.70;;
57899;SDS011;60605;53.716;19.940;2023-07-31T01:38:31;10.70;;;9.60;;
57899;SDS011;60605;53.716;19.940;2023-07-31T01:43:34;11.20;;;10.20;;
57899;SDS011;60605;53.716;19.940;2023-07-31T01:48:37;10.20;;;9.20;;
57899;SDS011;60605;53.716;19.940;2023-07-31T01:53:41;11.60;;;9.80;;
57899;SDS011;60605;53.716;19.940;2023-07-31T01:58:44;13.30;;;10.30;;
57899;SDS011;60605;53.716;19.940;2023-07-31T02:03:47;11.70;;;10.60;;
57899;SDS011;60605;53.716;19.940;2023-07-31T02:08:51;10.80;;;9.70;;
57899;SDS011;60605;53.716;19.940;2023-07-31T02:13:54;16.80;;;10.60;;
57899;SDS011;60605;53.716;19.940;2023-07-31T02:18:57;11.10;;;9.10;;
57899;SDS011;60605;53.716;19.940;2023-07-31T02:24:01;11.30;;;10.20;;
57899;SDS011;60605;53.716;19.940;2023-07-31T02:29:04;11.60;;;9.90;;
57899;SDS011;60605;53.716;19.940;2023-07-31T02:34:07;9.70;;;8.80;;
57899;SDS011;60605;53.716;19.940;2023-07-31T02:39:10;12.20;;;9.60;;
57899;SDS011;60605;53.716;19.940;2023-07-31T02:44:14;9.70;;;8.90;;
57899;SDS011;60605;53.716;19.940;2023-07-31T02:49:17;10.80;;;9.00;;
57899;SDS011;60605;53.716;19.940;2023-07-31T02:54:20;17.40;;;9.00;;
57899;SDS011;60605;53.716;19.940;2023-07-31T02:59:24;10.40;;;8.70;;
57899;SDS011;60605;53.716;19.940;2023-07-31T03:04:28;11.20;;;8.90;;
57899;SDS011;60605;53.716;19.940;2023-07-31T03:09:31;9.10;;;8.20;;
57899;SDS011;60605;53.716;19.940;2023-07-31T03:14:34;8.80;;;8.00;;
57899;SDS011;60605;53.716;19.940;2023-07-31T03:19:38;10.10;;;8.40;;
57899;SDS011;60605;53.716;19.940;2023-07-31T03:24:41;12.50;;;8.60;;
57899;SDS011;60605;53.716;19.940;2023-07-31T03:29:44;8.90;;;7.80;;
57899;SDS011;60605;53.716;19.940;2023-07-31T03:34:49;7.60;;;6.90;;
57899;SDS011;60605;53.716;19.940;2023-07-31T03:39:52;8.20;;;7.30;;
57899;SDS011;60605;53.716;19.940;2023-07-31T03:44:56;7.30;;;6.60;;
57899;SDS011;60605;53.716;19.940;2023-07-31T03:49:59;7.50;;;6.20;;
57899;SDS011;60605;53.716;19.940;2023-07-31T03:55:02;9.90;;;6.70;;
57899;SDS011;60605;53.716;19.940;2023-07-31T04:00:06;8.80;;;6.90;;
57899;SDS011;60605;53.716;19.940;2023-07-31T04:05:10;9.90;;;7.10;;
57899;SDS011;60605;53.716;19.940;2023-07-31T04:10:14;6.90;;;6.20;;
57899;SDS011;60605;53.716;19.940;2023-07-31T04:15:17;6.30;;;5.50;;
57899;SDS011;60605;53.716;19.940;2023-07-31T04:20:20;6.70;;;5.10;;
57899;SDS011;60605;53.716;19.940;2023-07-31T04:25:24;5.90;;;4.90;;
57899;SDS011;60605;53.716;19.940;2023-07-31T04:30:27;5.30;;;4.00;;
57899;SDS011;60605;53.716;19.940;2023-07-31T04:35:31;4.70;;;4.30;;
57899;SDS011;60605;53.716;19.940;2023-07-31T04:40:34;5.80;;;4.70;;
57899;SDS011;60605;53.716;19.940;2023-07-31T04:45:38;4.30;;;3.50;;
57899;SDS011;60605;53.716;19.940;2023-07-31T04:50:41;6.30;;;3.90;;
57899;SDS011;60605;53.716;19.940;2023-07-31T04:55:45;3.10;;;2.60;;
57899;SDS011;60605;53.716;19.940;2023-07-31T05:00:48;6.50;;;2.70;;
57899;SDS011;60605;53.716;19.940;2023-07-31T05:05:52;2.80;;;2.20;;
57899;SDS011;60605;53.716;19.940;2023-07-31T05:10:55;3.50;;;2.30;;
57899;SDS011;60605;53.716;19.940;2023-07-31T05:15:58;3.20;;;2.10;;
57899;SDS011;60605;53.716;19.940;2023-07-31T05:21:05;4.20;;;2.10;;
57899;SDS011;60605;53.716;19.940;2023-07-31T05:26:08;4.50;;;2.10;;
57899;SDS011;60605;53.716;19.940;2023-07-31T05:31:14;2.40;;;2.10;;
57899;SDS011;60605;53.716;19.940;2023-07-31T05:36:18;4.80;;;2.00;;
57899;SDS011;60605;53.716;19.940;2023-07-31T05:41:21;3.50;;;2.10;;
57899;SDS011;60605;53.716;19.940;2023-07-31T05:46:25;4.20;;;1.80;;
57899;SDS011;60605;53.716;19.940;2023-07-31T05:51:28;4.40;;;1.70;;
57899;SDS011;60605;53.716;19.940;2023-07-31T05:56:31;4.30;;;2.20;;
57899;SDS011;60605;53.716;19.940;2023-07-31T06:01:37;3.70;;;2.00;;
57899;SDS011;60605;53.716;19.940;2023-07-31T06:06:40;2.70;;;1.90;;
57899;SDS011;60605;53.716;19.940;2023-07-31T06:11:44;2.00;;;1.80;;
57899;SDS011;60605;53.716;19.940;2023-07-31T06:16:47;3.30;;;2.10;;
57899;SDS011;60605;53.716;19.940;2023-07-31T06:21:50;3.10;;;2.00;;
57899;SDS011;60605;53.716;19.940;2023-07-31T06:26:54;2.80;;;1.80;;
57899;SDS011;60605;53.716;19.940;2023-07-31T06:31:57;4.70;;;2.10;;
57899;SDS011;60605;53.716;19.940;2023-07-31T06:37:03;3.30;;;2.00;;
57899;SDS011;60605;53.716;19.940;2023-07-31T06:42:08;4.00;;;1.80;;
57899;SDS011;60605;53.716;19.940;2023-07-31T06:47:11;2.90;;;1.70;;
57899;SDS011;60605;53.716;19.940;2023-07-31T06:52:14;2.70;;;1.60;;
57899;SDS011;60605;53.716;19.940;2023-07-31T06:57:18;1.90;;;1.70;;
57899;SDS011;60605;53.716;19.940;2023-07-31T07:02:22;2.20;;;1.60;;
57899;SDS011;60605;53.716;19.940;2023-07-31T07:07:25;2.40;;;1.60;;
57899;SDS011;60605;53.716;19.940;2023-07-31T07:12:29;5.30;;;1.70;;
57899;SDS011;60605;53.716;19.940;2023-07-31T07:17:35;2.90;;;1.90;;
57899;SDS011;60605;53.716;19.940;2023-07-31T07:22:38;2.90;;;1.70;;
57899;SDS011;60605;53.716;19.940;2023-07-31T07:27:43;2.70;;;1.80;;
57899;SDS011;60605;53.716;19.940;2023-07-31T07:32:46;3.70;;;1.90;;
57899;SDS011;60605;53.716;19.940;2023-07-31T07:37:49;5.80;;;2.00;;
57899;SDS011;60605;53.716;19.940;2023-07-31T07:42:55;2.60;;;1.80;;
57899;SDS011;60605;53.716;19.940;2023-07-31T07:48:00;3.20;;;2.30;;
57899;SDS011;60605;53.716;19.940;2023-07-31T07:53:03;2.50;;;1.70;;
57899;SDS011;60605;53.716;19.940;2023-07-31T07:58:07;3.90;;;2.00;;
57899;SDS011;60605;53.716;19.940;2023-07-31T08:03:11;2.90;;;1.80;;
57899;SDS011;60605;53.716;19.940;2023-07-31T08:08:15;3.60;;;1.90;;
57899;SDS011;60605;53.716;19.940;2023-07-31T08:13:20;3.20;;;1.90;;
57899;SDS011;60605;53.716;19.940;2023-07-31T08:18:23;3.60;;;2.00;;
57899;SDS011;60605;53.716;19.940;2023-07-31T08:23:28;3.10;;;1.80;;
57899;SDS011;60605;53.716;19.940;2023-07-31T08:28:32;5.80;;;1.90;;
57899;SDS011;60605;53.716;19.940;2023-07-31T08:33:36;4.00;;;1.90;;
57899;SDS011;60605;53.716;19.940;2023-07-31T08:38:41;2.30;;;2.00;;
57899;SDS011;60605;53.716;19.940;2023-07-31T08:43:46;3.50;;;1.90;;
57899;SDS011;60605;53.716;19.940;2023-07-31T08:48:50;3.00;;;1.90;;
57899;SDS011;60605;53.716;19.940;2023-07-31T08:53:55;4.40;;;1.80;;
57899;SDS011;60605;53.716;19.940;2023-07-31T08:59:01;5.20;;;1.90;;
57899;SDS011;60605;53.716;19.940;2023-07-31T09:04:07;3.60;;;1.80;;
57899;SDS011;60605;53.716;19.940;2023-07-31T09:09:13;2.00;;;1.60;;
57899;SDS011;60605;53.716;19.940;2023-07-31T09:14:18;5.80;;;1.80;;
57899;SDS011;60605;53.716;19.940;2023-07-31T09:19:26;4.40;;;1.80;;
57899;SDS011;60605;53.716;19.940;2023-07-31T09:24:37;2.30;;;1.80;;
57899;SDS011;60605;53.716;19.940;2023-07-31T09:29:40;4.40;;;1.80;;
57899;SDS011;60605;53.716;19.940;2023-07-31T09:34:44;2.00;;;1.60;;
57899;SDS011;60605;53.716;19.940;2023-07-31T09:39:47;3.90;;;2.00;;
57899;SDS011;60605;53.716;19.940;2023-07-31T09:44:51;4.60;;;1.70;;
57899;SDS011;60605;53.716;19.940;2023-07-31T09:49:55;2.50;;;1.80;;
57899;SDS011;60605;53.716;19.940;2023-07-31T09:54:58;2.80;;;1.80;;
57899;SDS011;60605;53.716;19.940;2023-07-31T10:00:01;1.50;;;1.40;;
57899;SDS011;60605;53.716;19.940;2023-07-31T10:05:06;1.80;;;1.60;;
57899;SDS011;60605;53.716;19.940;2023-07-31T10:10:11;1.50;;;1.40;;
57899;SDS011;60605;53.716;19.940;2023-07-31T10:15:16;3.30;;;1.70;;
57899;SDS011;60605;53.716;19.940;2023-07-31T10:20:20;3.10;;;1.50;;
57899;SDS011;60605;53.716;19.940;2023-07-31T10:25:24;1.60;;;1.30;;
57899;SDS011;60605;53.716;19.940;2023-07-31T10:30:30;2.50;;;1.40;;
57899;SDS011;60605;53.716;19.940;2023-07-31T10:35:37;2.40;;;1.50;;
57899;SDS011;60605;53.716;19.940;2023-07-31T10:40:40;3.80;;;1.60;;
57899;SDS011;60605;53.716;19.940;2023-07-31T10:45:44;1.70;;;1.30;;
57899;SDS011;60605;53.716;19.940;2023-07-31T10:50:49;2.70;;;1.70;;
57899;SDS011;60605;53.716;19.940;2023-07-31T10:55:53;2.90;;;1.50;;
57899;SDS011;60605;53.716;19.940;2023-07-31T11:01:05;2.20;;;1.50;;
57899;SDS011;60605;53.716;19.940;2023-07-31T11:06:09;1.90;;;1.60;;
57899;SDS011;60605;53.716;19.940;2023-07-31T11:11:17;2.30;;;1.50;;
57899;SDS011;60605;53.716;19.940;2023-07-31T11:16:22;1.60;;;1.30;;
57899;SDS011;60605;53.716;19.940;2023-07-31T11:21:27;2.20;;;1.70;;
57899;SDS011;60605;53.716;19.940;2023-07-31T11:26:31;3.10;;;1.70;;
57899;SDS011;60605;53.716;19.940;2023-07-31T11:31:34;3.10;;;1.70;;
57899;SDS011;60605;53.716;19.940;2023-07-31T11:36:55;4.20;;;1.60;;
57899;SDS011;60605;53.716;19.940;2023-07-31T11:41:59;3.00;;;1.70;;
57899;SDS011;60605;53.716;19.940;2023-07-31T11:47:04;5.50;;;2.30;;
57899;SDS011;60605;53.716;19.940;2023-07-31T11:52:09;2.20;;;1.60;;
57899;SDS011;60605;53.716;19.940;2023-07-31T11:57:14;2.90;;;1.90;;
57899;SDS011;60605;53.716;19.940;2023-07-31T12:02:20;3.80;;;1.90;;
57899;SDS011;60605;53.716;19.940;2023-07-31T12:07:25;4.00;;;1.70;;
57899;SDS011;60605;53.716;19.940;2023-07-31T12:12:28;2.80;;;1.60;;
57899;SDS011;60605;53.716;19.940;2023-07-31T12:17:31;3.00;;;1.80;;
57899;SDS011;60605;53.716;19.940;2023-07-31T12:22:35;3.70;;;1.70;;
57899;SDS011;60605;53.716;19.940;2023-07-31T12:27:38;3.00;;;1.80;;
57899;SDS011;60605;53.716;19.940;2023-07-31T12:32:42;3.70;;;1.80;;
57899;SDS011;60605;53.716;19.940;2023-07-31T12:37:46;3.60;;;1.80;;
57899;SDS011;60605;53.716;19.940;2023-07-31T12:42:50;3.40;;;1.80;;
57899;SDS011;60605;53.716;19.940;2023-07-31T12:47:54;5.00;;;1.90;;
57899;SDS011;60605;53.716;19.940;2023-07-31T12:52:57;3.70;;;1.90;;
57899;SDS011;60605;53.716;19.940;2023-07-31T12:58:01;2.70;;;1.70;;
57899;SDS011;60605;53.716;19.940;2023-07-31T13:03:08;2.60;;;1.70;;
57899;SDS011;60605;53.716;19.940;2023-07-31T13:08:11;10.50;;;2.50;;
57899;SDS011;60605;53.716;19.940;2023-07-31T13:13:15;4.00;;;2.20;;
57899;SDS011;60605;53.716;19.940;2023-07-31T13:18:18;3.80;;;2.50;;
57899;SDS011;60605;53.716;19.940;2023-07-31T13:23:22;4.90;;;2.60;;
57899;SDS011;60605;53.716;19.940;2023-07-31T13:28:26;4.60;;;2.40;;
57899;SDS011;60605;53.716;19.940;2023-07-31T13:33:29;3.70;;;2.40;;
57899;SDS011;60605;53.716;19.940;2023-07-31T13:38:39;3.40;;;2.20;;
57899;SDS011;60605;53.716;19.940;2023-07-31T13:43:43;4.30;;;2.30;;
57899;SDS011;60605;53.716;19.940;2023-07-31T13:48:46;4.60;;;2.30;;
57899;SDS011;60605;53.716;19.940;2023-07-31T13:53:50;3.60;;;2.60;;
57899;SDS011;60605;53.716;19.940;2023-07-31T13:58:53;4.10;;;2.20;;
57899;SDS011;60605;53.716;19.940;2023-07-31T14:03:56;11.80;;;4.40;;
57899;SDS011;60605;53.716;19.940;2023-07-31T14:09:01;13.00;;;5.10;;
57899;SDS011;60605;53.716;19.940;2023-07-31T14:14:06;11.90;;;4.50;;
57899;SDS011;60605;53.716;19.940;2023-07-31T14:19:09;5.40;;;2.60;;
57899;SDS011;60605;53.716;19.940;2023-07-31T14:24:14;3.50;;;2.50;;
57899;SDS011;60605;53.716;19.940;2023-07-31T14:29:17;3.90;;;2.60;;
57899;SDS011;60605;53.716;19.940;2023-07-31T14:34:20;4.00;;;2.40;;
57899;SDS011;60605;53.716;19.940;2023-07-31T14:39:23;4.80;;;2.20;;
57899;SDS011;60605;53.716;19.940;2023-07-31T14:44:27;4.20;;;2.30;;
57899;SDS011;60605;53.716;19.940;2023-07-31T14:49:30;3.30;;;2.10;;
57899;SDS011;60605;53.716;19.940;2023-07-31T14:54:34;2.20;;;1.90;;
57899;SDS011;60605;53.716;19.940;2023-07-31T14:59:37;5.00;;;2.40;;
57899;SDS011;60605;53.716;19.940;2023-07-31T15:04:40;7.50;;;3.50;;
57899;SDS011;60605;53.716;19.940;2023-07-31T15:09:44;4.00;;;2.30;;
57899;SDS011;60605;53.716;19.940;2023-07-31T15:14:48;6.40;;;2.20;;
57899;SDS011;60605;53.716;19.940;2023-07-31T15:19:52;5.00;;;2.30;;
57899;SDS011;60605;53.716;19.940;2023-07-31T15:24:56;3.30;;;2.10;;
57899;SDS011;60605;53.716;19.940;2023-07-31T15:30:00;3.60;;;2.20;;
57899;SDS011;60605;53.716;19.940;2023-07-31T15:35:05;4.30;;;2.50;;
57899;SDS011;60605;53.716;19.940;2023-07-31T15:40:10;2.80;;;2.20;;
57899;SDS011;60605;53.716;19.940;2023-07-31T15:45:14;4.90;;;2.40;;
57899;SDS011;60605;53.716;19.940;2023-07-31T15:50:17;10.90;;;3.20;;
57899;SDS011;60605;53.716;19.940;2023-07-31T15:55:21;22.00;;;5.00;;
57899;SDS011;60605;53.716;19.940;2023-07-31T16:00:27;10.80;;;3.20;;
57899;SDS011;60605;53.716;19.940;2023-07-31T16:05:30;4.10;;;2.00;;
57899;SDS011;60605;53.716;19.940;2023-07-31T16:10:36;18.50;;;4.20;;
57899;SDS011;60605;53.716;19.940;2023-07-31T16:15:43;51.80;;;10.30;;
57899;SDS011;60605;53.716;19.940;2023-07-31T16:20:46;3.60;;;2.00;;
57899;SDS011;60605;53.716;19.940;2023-07-31T16:25:49;31.10;;;7.00;;
57899;SDS011;60605;53.716;19.940;2023-07-31T16:30:54;2.70;;;2.20;;
57899;SDS011;60605;53.716;19.940;2023-07-31T16:35:58;2.10;;;1.90;;
57899;SDS011;60605;53.716;19.940;2023-07-31T16:41:01;3.30;;;2.30;;
57899;SDS011;60605;53.716;19.940;2023-07-31T16:46:05;5.30;;;2.10;;
57899;SDS011;60605;53.716;19.940;2023-07-31T16:51:09;2.60;;;1.90;;
57899;SDS011;60605;53.716;19.940;2023-07-31T16:56:13;2.80;;;1.90;;
57899;SDS011;60605;53.716;19.940;2023-07-31T17:01:16;3.70;;;1.90;;
57899;SDS011;60605;53.716;19.940;2023-07-31T17:06:20;5.60;;;2.50;;
57899;SDS011;60605;53.716;19.940;2023-07-31T17:11:24;2.50;;;1.80;;
57899;SDS011;60605;53.716;19.940;2023-07-31T17:16:27;2.20;;;2.00;;
57899;SDS011;60605;53.716;19.940;2023-07-31T17:21:32;2.80;;;1.80;;
57899;SDS011;60605;53.716;19.940;2023-07-31T17:26:35;2.20;;;1.80;;
57899;SDS011;60605;53.716;19.940;2023-07-31T17:31:39;2.20;;;2.00;;
57899;SDS011;60605;53.716;19.940;2023-07-31T17:36:44;2.00;;;1.80;;
57899;SDS011;60605;53.716;19.940;2023-07-31T17:41:48;2.80;;;1.60;;
57899;SDS011;60605;53.716;19.940;2023-07-31T17:46:51;6.00;;;2.80;;
57899;SDS011;60605;53.716;19.940;2023-07-31T17:51:55;6.80;;;3.20;;
57899;SDS011;60605;53.716;19.940;2023-07-31T17:56:58;6.30;;;3.30;;
57899;SDS011;60605;53.716;19.940;2023-07-31T18:02:02;5.30;;;2.80;;
57899;SDS011;60605;53.716;19.940;2023-07-31T18:07:06;3.60;;;2.40;;
57899;SDS011;60605;53.716;19.940;2023-07-31T18:12:11;2.30;;;1.80;;
57899;SDS011;60605;53.716;19.940;2023-07-31T18:17:14;2.80;;;2.20;;
57899;SDS011;60605;53.716;19.940;2023-07-31T18:22:19;2.00;;;1.90;;
57899;SDS011;60605;53.716;19.940;2023-07-31T18:27:23;4.30;;;2.30;;
57899;SDS011;60605;53.716;19.940;2023-07-31T18:32:26;3.00;;;2.20;;
57899;SDS011;60605;53.716;19.940;2023-07-31T18:37:30;4.10;;;2.20;;
57899;SDS011;60605;53.716;19.940;2023-07-31T18:42:33;4.10;;;2.30;;
57899;SDS011;60605;53.716;19.940;2023-07-31T18:47:37;4.70;;;2.50;;
57899;SDS011;60605;53.716;19.940;2023-07-31T18:52:41;6.50;;;3.00;;
57899;SDS011;60605;53.716;19.940;2023-07-31T18:57:44;7.20;;;3.60;;
57899;SDS011;60605;53.716;19.940;2023-07-31T19:02:49;7.40;;;4.10;;
57899;SDS011;60605;53.716;19.940;2023-07-31T19:07:53;9.60;;;4.90;;
57899;SDS011;60605;53.716;19.940;2023-07-31T19:12:56;10.20;;;4.80;;
57899;SDS011;60605;53.716;19.940;2023-07-31T19:18:01;7.40;;;4.20;;
57899;SDS011;60605;53.716;19.940;2023-07-31T19:23:06;5.00;;;2.90;;
57899;SDS011;60605;53.716;19.940;2023-07-31T19:28:10;6.30;;;3.60;;
57899;SDS011;60605;53.716;19.940;2023-07-31T19:33:14;6.60;;;3.70;;
57899;SDS011;60605;53.716;19.940;2023-07-31T19:38:17;4.40;;;3.30;;
57899;SDS011;60605;53.716;19.940;2023-07-31T19:43:20;3.60;;;3.00;;
57899;SDS011;60605;53.716;19.940;2023-07-31T19:48:24;4.30;;;3.10;;
57899;SDS011;60605;53.716;19.940;2023-07-31T19:53:28;5.20;;;2.80;;
57899;SDS011;60605;53.716;19.940;2023-07-31T19:58:31;3.20;;;2.80;;
57899;SDS011;60605;53.716;19.940;2023-07-31T20:03:36;2.50;;;2.30;;
57899;SDS011;60605;53.716;19.940;2023-07-31T20:08:40;3.00;;;2.40;;
57899;SDS011;60605;53.716;19.940;2023-07-31T20:13:45;3.20;;;2.30;;
57899;SDS011;60605;53.716;19.940;2023-07-31T20:18:49;3.40;;;2.50;;
57899;SDS011;60605;53.716;19.940;2023-07-31T20:23:52;2.90;;;2.70;;
57899;SDS011;60605;53.716;19.940;2023-07-31T20:28:56;4.70;;;2.80;;
57899;SDS011;60605;53.716;19.940;2023-07-31T20:34:00;2.80;;;2.50;;
57899;SDS011;60605;53.716;19.940;2023-07-31T20:39:03;3.40;;;3.10;;
57899;SDS011;60605;53.716;19.940;2023-07-31T20:44:08;3.30;;;3.00;;
57899;SDS011;60605;53.716;19.940;2023-07-31T20:49:11;5.30;;;3.20;;
57899;SDS011;60605;53.716;19.940;2023-07-31T20:54:14;3.70;;;2.90;;
57899;SDS011;60605;53.716;19.940;2023-07-31T20:59:18;3.30;;;2.80;;
57899;SDS011;60605;53.716;19.940;2023-07-31T21:04:22;3.90;;;2.60;;
57899;SDS011;60605;53.716;19.940;2023-07-31T21:09:26;3.10;;;2.80;;
57899;SDS011;60605;53.716;19.940;2023-07-31T21:14:29;4.00;;;2.40;;
57899;SDS011;60605;53.716;19.940;2023-07-31T21:19:34;4.20;;;3.00;;
57899;SDS011;60605;53.716;19.940;2023-07-31T21:24:37;3.30;;;3.00;;
57899;SDS011;60605;53.716;19.940;2023-07-31T21:29:40;3.10;;;2.60;;
57899;SDS011;60605;53.716;19.940;2023-07-31T21:34:45;6.10;;;3.10;;
57899;SDS011;60605;53.716;19.940;2023-07-31T21:39:49;3.90;;;3.00;;
57899;SDS011;60605;53.716;19.940;2023-07-31T21:44:52;6.70;;;3.40;;
57899;SDS011;60605;53.716;19.940;2023-07-31T21:49:56;5.90;;;2.70;;
57899;SDS011;60605;53.716;19.940;2023-07-31T21:55:00;25.70;;;5.30;;
57899;SDS011;60605;53.716;19.940;2023-07-31T22:00:07;3.20;;;2.90;;
57899;SDS011;60605;53.716;19.940;2023-07-31T22:05:12;4.20;;;2.90;;
57899;SDS011;60605;53.716;19.940;2023-07-31T22:10:15;2.90;;;2.70;;
57899;SDS011;60605;53.716;19.940;2023-07-31T22:15:22;3.80;;;3.20;;
57899;SDS011;60605;53.716;19.940;2023-07-31T22:20:26;5.00;;;3.40;;
57899;SDS011;60605;53.716;19.940;2023-07-31T22:25:29;4.30;;;2.70;;
57899;SDS011;60605;53.716;19.940;2023-07-31T22:30:33;5.00;;;2.90;;
57899;SDS011;60605;53.716;19.940;2023-07-31T22:35:37;3.30;;;3.00;;
57899;SDS011;60605;53.716;19.940;2023-07-31T22:40:40;5.70;;;2.90;;
57899;SDS011;60605;53.716;19.940;2023-07-31T22:45:45;6.50;;;3.00;;
57899;SDS011;60605;53.716;19.940;2023-07-31T22:50:49;3.90;;;3.00;;
57899;SDS011;60605;53.716;19.940;2023-07-31T22:55:53;4.90;;;3.00;;
57899;SDS011;60605;53.716;19.940;2023-07-31T23:01:00;4.50;;;2.70;;
57899;SDS011;60605;53.716;19.940;2023-07-31T23:06:08;5.10;;;3.30;;
57899;SDS011;60605;53.716;19.940;2023-07-31T23:11:12;4.70;;;3.30;;
57899;SDS011;60605;53.716;19.940;2023-07-31T23:16:15;4.00;;;3.20;;
57899;SDS011;60605;53.716;19.940;2023-07-31T23:21:18;5.40;;;3.00;;
57899;SDS011;60605;53.716;19.940;2023-07-31T23:26:22;4.80;;;3.30;;
57899;SDS011;60605;53.716;19.940;2023-07-31T23:31:25;4.70;;;2.90;;
57899;SDS011;60605;53.716;19.940;2023-07-31T23:36:29;4.60;;;3.40;;
57899;SDS011;60605;53.716;19.940;2023-07-31T23:41:32;3.90;;;3.10;;
57899;SDS011;60605;53.716;19.940;2023-07-31T23:46:36;3.70;;;3.30;;
57899;SDS011;60605;53.716;19.940;2023-07-31T23:51:40;5.70;;;3.10;;
57899;SDS011;60605;53.716;19.940;2023-07-31T23:56:44;4.30;;;3.40;;
